createdAt,value
2019-04-27T00:02:39.217Z,8.47
2019-04-27T00:05:32.098Z,8.07
2019-04-27T00:08:21.098Z,12.70
2019-04-27T00:11:08.648Z,10.53
2019-04-27T00:13:40.747Z,7.57
2019-04-27T00:16:23.535Z,7.33
2019-04-27T00:19:11.000Z,12.53
2019-04-27T00:21:47.662Z,10.10
2019-04-27T00:24:16.714Z,8.70
2019-04-27T00:26:45.512Z,6.87
2019-04-27T00:29:13.778Z,12.33
2019-04-27T00:31:43.446Z,9.20
2019-04-27T00:34:13.346Z,7.00
2019-04-27T00:36:50.009Z,9.87
2019-04-27T00:39:31.077Z,5.67
2019-04-27T00:41:58.914Z,7.97
2019-04-27T00:44:27.102Z,4.53
2019-04-27T00:46:55.791Z,4.40
2019-04-27T00:49:24.280Z,6.87
2019-04-27T00:51:54.252Z,4.70
2019-04-27T00:54:23.800Z,8.27
2019-04-27T00:57:26.458Z,4.20
2019-04-27T01:00:13.453Z,4.70
2019-04-27T01:02:48.473Z,6.47
2019-04-27T01:05:19.998Z,4.50
2019-04-27T01:07:48.063Z,10.37
2019-04-27T01:10:16.320Z,5.20
2019-04-27T01:12:45.229Z,4.40
2019-04-27T01:15:15.165Z,4.83
2019-04-27T01:17:43.072Z,4.70
2019-04-27T01:20:11.856Z,4.77
2019-04-27T01:22:41.409Z,6.10
2019-04-27T01:25:10.484Z,5.37
2019-04-27T01:27:59.533Z,5.10
2019-04-27T01:30:34.295Z,5.87
2019-04-27T01:33:04.176Z,4.93
2019-04-27T01:35:32.375Z,5.27
2019-04-27T01:38:00.486Z,5.97
2019-04-27T01:40:29.489Z,8.83
2019-04-27T01:42:58.860Z,4.70
2019-04-27T01:45:26.840Z,5.13
2019-04-27T01:47:54.784Z,7.97
2019-04-27T01:50:23.188Z,5.20
2019-04-27T01:52:51.744Z,5.00
2019-04-27T01:55:19.677Z,5.40
2019-04-27T01:57:48.728Z,5.23
2019-04-27T02:00:49.427Z,5.50
2019-04-27T02:03:20.472Z,4.97
2019-04-27T02:05:52.893Z,4.70
2019-04-27T02:08:20.914Z,4.27
2019-04-27T02:10:49.626Z,4.53
2019-04-27T02:13:18.866Z,4.37
2019-04-27T02:15:48.684Z,4.57
2019-04-27T02:18:16.836Z,4.13
2019-04-27T02:20:44.838Z,4.27
2019-04-27T02:23:12.901Z,4.63
2019-04-27T02:25:40.894Z,5.00
2019-04-27T02:28:34.418Z,5.30
2019-04-27T02:31:40.440Z,5.27
2019-04-27T02:34:11.362Z,5.80
2019-04-27T02:36:39.344Z,5.47
2019-04-27T02:39:09.493Z,4.73
2019-04-27T02:41:40.042Z,6.43
2019-04-27T02:44:30.327Z,5.00
2019-04-27T02:47:00.319Z,4.63
2019-04-27T02:49:30.388Z,5.57
2019-04-27T02:52:06.385Z,5.50
2019-04-27T02:54:34.920Z,7.63
2019-04-27T02:57:03.722Z,5.77
2019-04-27T02:59:31.665Z,5.10
2019-04-27T03:02:10.534Z,5.60
2019-04-27T03:04:39.878Z,6.60
2019-04-27T03:07:08.282Z,8.23
2019-04-27T03:09:36.229Z,6.97
2019-04-27T03:12:04.786Z,7.03
2019-04-27T03:14:50.784Z,9.37
2019-04-27T03:17:26.953Z,7.33
2019-04-27T03:20:04.049Z,7.20
2019-04-27T03:22:39.565Z,8.47
2019-04-27T03:25:26.922Z,7.00
2019-04-27T03:28:00.121Z,7.43
2019-04-27T03:30:34.725Z,8.03
2019-04-27T03:33:03.257Z,7.63
2019-04-27T03:35:35.335Z,7.93
2019-04-27T03:38:00.521Z,6.87
2019-04-27T03:40:30.748Z,9.07
2019-04-27T03:43:02.672Z,7.60
2019-04-27T03:45:30.610Z,7.00
2019-04-27T03:48:00.441Z,8.30
2019-04-27T03:50:34.144Z,9.83
2019-04-27T03:53:23.277Z,8.83
2019-04-27T03:55:53.943Z,7.53
2019-04-27T03:58:34.677Z,10.07
2019-04-27T04:01:02.699Z,7.10
2019-04-27T04:03:31.313Z,7.30
2019-04-27T04:06:00.247Z,7.63
2019-04-27T04:08:30.734Z,7.97
2019-04-27T04:11:10.312Z,10.33
2019-04-27T04:13:43.690Z,8.63
2019-04-27T04:16:20.203Z,10.03
2019-04-27T04:19:00.794Z,9.67
2019-04-27T04:21:29.939Z,8.03
2019-04-27T04:24:00.503Z,10.90
2019-04-27T04:26:29.485Z,10.40
2019-04-27T04:28:59.865Z,11.33
2019-04-27T04:31:32.474Z,9.50
2019-04-27T04:33:59.805Z,8.87
2019-04-27T04:36:30.158Z,9.60
2019-04-27T04:39:00.452Z,7.40
2019-04-27T04:41:44.843Z,8.00
2019-04-27T04:44:21.284Z,8.30
2019-04-27T04:47:10.351Z,8.37
2019-04-27T04:49:39.773Z,9.27
2019-04-27T04:52:09.634Z,10.57
2019-04-27T04:54:37.973Z,7.47
2019-04-27T04:57:05.844Z,7.80
2019-04-27T04:59:33.850Z,8.00
2019-04-27T05:02:02.324Z,8.17
2019-04-27T05:04:31.401Z,10.83
2019-04-27T05:06:59.389Z,8.50
2019-04-27T05:09:27.261Z,8.43
2019-04-27T05:11:55.525Z,9.53
2019-04-27T05:14:23.435Z,7.87
2019-04-27T05:16:51.394Z,8.20
2019-04-27T05:19:19.508Z,8.30
2019-04-27T05:21:49.171Z,7.80
2019-04-27T05:24:19.028Z,7.60
2019-04-27T05:26:48.624Z,7.83
2019-04-27T05:29:16.579Z,7.57
2019-04-27T05:31:45.067Z,7.50
2019-04-27T05:34:13.812Z,8.00
2019-04-27T05:36:48.784Z,7.63
2019-04-27T05:39:13.214Z,8.97
2019-04-27T05:41:41.822Z,7.50
2019-04-27T05:44:20.842Z,7.93
2019-04-27T05:47:11.731Z,9.43
2019-04-27T05:49:44.249Z,7.37
2019-04-27T05:52:29.961Z,7.83
2019-04-27T05:54:59.184Z,7.70
2019-04-27T05:57:30.832Z,9.40
2019-04-27T06:00:01.073Z,7.23
2019-04-27T06:02:30.241Z,9.63
2019-04-27T06:05:00.124Z,8.70
2019-04-27T06:07:29.596Z,7.13
2019-04-27T06:09:59.803Z,10.13
2019-04-27T06:12:29.593Z,8.27
2019-04-27T06:14:59.921Z,7.20
2019-04-27T06:17:29.840Z,7.03
2019-04-27T06:19:59.531Z,10.07
2019-04-27T06:22:29.240Z,8.13
2019-04-27T06:24:59.736Z,6.70
2019-04-27T06:27:30.197Z,6.47
2019-04-27T06:29:59.282Z,6.87
2019-04-27T06:32:29.569Z,6.40
2019-04-27T06:34:59.055Z,6.23
2019-04-27T06:37:29.107Z,6.17
2019-04-27T06:39:57.175Z,6.23
2019-04-27T06:42:25.112Z,5.30
2019-04-27T06:44:52.924Z,7.17
2019-04-27T06:47:20.833Z,5.87
2019-04-27T06:49:49.540Z,7.60
2019-04-27T06:52:18.700Z,6.03
2019-04-27T06:54:48.519Z,6.50
2019-04-27T06:57:16.403Z,5.97
2019-04-27T06:59:48.390Z,6.17
2019-04-27T07:02:19.023Z,6.07
2019-04-27T07:04:47.004Z,6.30
2019-04-27T07:07:14.813Z,7.50
2019-04-27T07:09:42.904Z,7.20
2019-04-27T07:12:11.411Z,6.77
2019-04-27T07:14:51.752Z,6.70
2019-04-27T07:17:09.224Z,6.20
2019-04-27T07:19:37.129Z,6.67
2019-04-27T07:22:04.907Z,6.33
2019-04-27T07:24:32.729Z,6.93
2019-04-27T07:27:00.511Z,6.73
2019-04-27T07:29:29.289Z,6.70
2019-04-27T07:31:59.621Z,6.57
2019-04-27T07:34:28.602Z,6.80
2019-04-27T07:36:59.581Z,6.27
2019-04-27T07:39:29.239Z,6.30
2019-04-27T07:41:58.604Z,6.47
2019-04-27T07:44:41.245Z,6.63
2019-04-27T07:47:20.394Z,6.47
2019-04-27T07:49:49.658Z,6.57
2019-04-27T07:52:18.551Z,6.30
2019-04-27T07:54:49.187Z,6.17
2019-04-27T07:57:17.416Z,6.83
2019-04-27T07:59:45.373Z,6.40
2019-04-27T08:02:13.312Z,6.47
2019-04-27T08:04:43.163Z,6.40
2019-04-27T08:07:11.091Z,5.93
2019-04-27T08:09:41.169Z,5.47
2019-04-27T08:12:10.888Z,5.63
2019-04-27T08:14:39.103Z,5.63
2019-04-27T08:17:07.228Z,6.00
2019-04-27T08:19:35.181Z,4.80
2019-04-27T08:22:03.269Z,5.20
2019-04-27T08:24:31.197Z,5.90
2019-04-27T08:27:09.461Z,6.07
2019-04-27T08:29:56.540Z,7.90
2019-04-27T08:32:29.875Z,5.40
2019-04-27T08:34:59.438Z,5.27
2019-04-27T08:37:28.672Z,5.53
2019-04-27T08:39:56.744Z,5.40
2019-04-27T08:42:24.663Z,6.83
2019-04-27T08:44:52.810Z,5.20
2019-04-27T08:47:20.723Z,5.30
2019-04-27T08:49:49.154Z,4.63
2019-04-27T08:52:17.247Z,5.47
2019-04-27T08:54:45.464Z,5.10
2019-04-27T08:57:13.411Z,6.77
2019-04-27T08:59:41.304Z,5.20
2019-04-27T09:02:09.962Z,5.47
2019-04-27T09:04:39.486Z,4.90
2019-04-27T09:07:25.624Z,5.60
2019-04-27T09:09:57.440Z,5.40
2019-04-27T09:12:53.507Z,6.00
2019-04-27T09:15:27.136Z,6.23
2019-04-27T09:17:55.708Z,6.17
2019-04-27T09:20:29.765Z,5.70
2019-04-27T09:22:59.190Z,6.57
2019-04-27T09:25:27.261Z,6.17
2019-04-27T09:27:55.222Z,6.97
2019-04-27T09:30:23.232Z,6.83
2019-04-27T09:32:51.155Z,7.43
2019-04-27T09:35:18.962Z,7.87
2019-04-27T09:37:47.604Z,8.90
2019-04-27T09:40:17.151Z,8.43
2019-04-27T09:42:46.367Z,10.00
2019-04-27T09:45:15.921Z,10.33
2019-04-27T09:47:44.028Z,10.47
2019-04-27T09:50:12.119Z,9.97
2019-04-27T09:52:40.664Z,10.20
2019-04-27T09:55:08.690Z,9.70
2019-04-27T09:57:37.015Z,10.57
2019-04-27T10:00:08.905Z,9.40
2019-04-27T10:02:36.992Z,9.67
2019-04-27T10:05:06.062Z,9.70
2019-04-27T10:07:35.750Z,9.30
2019-04-27T10:10:06.463Z,8.80
2019-04-27T10:12:36.889Z,10.20
2019-04-27T10:15:06.780Z,10.53
2019-04-27T10:17:34.728Z,11.13
2019-04-27T10:20:02.852Z,9.93
2019-04-27T10:22:40.399Z,9.93
2019-04-27T10:25:00.716Z,9.60
2019-04-27T10:27:29.477Z,9.60
2019-04-27T10:29:58.524Z,10.33
2019-04-27T10:32:26.633Z,9.83
2019-04-27T10:34:54.526Z,26.53
2019-04-27T10:37:22.388Z,13.90
2019-04-27T10:39:50.177Z,12.43
2019-04-27T10:42:18.194Z,10.87
2019-04-27T10:44:46.367Z,9.00
2019-04-27T10:47:15.786Z,10.13
2019-04-27T10:49:43.716Z,9.87
2019-04-27T10:52:11.784Z,11.73
2019-04-27T10:54:39.574Z,9.03
2019-04-27T10:57:07.651Z,8.27
2019-04-27T10:59:36.132Z,10.20
2019-04-27T11:02:04.359Z,10.00
2019-04-27T11:05:03.560Z,9.80
2019-04-27T11:07:36.275Z,42.27
2019-04-27T11:10:07.526Z,10.43
2019-04-27T11:12:36.197Z,9.90
2019-04-27T11:15:07.754Z,10.90
2019-04-27T11:17:37.087Z,9.60
2019-04-27T11:20:07.719Z,9.83
2019-04-27T11:22:36.393Z,11.00
2019-04-27T11:25:06.214Z,9.70
2019-04-27T11:27:34.447Z,10.93
2019-04-27T11:30:02.653Z,8.97
2019-04-27T11:32:30.604Z,10.17
2019-04-27T11:35:12.758Z,9.40
2019-04-27T11:37:40.645Z,9.37
2019-04-27T11:40:10.485Z,11.00
2019-04-27T11:42:38.611Z,9.70
2019-04-27T11:45:07.270Z,10.83
2019-04-27T11:47:36.534Z,9.17
2019-04-27T11:50:06.345Z,12.23
2019-04-27T11:52:34.791Z,12.40
2019-04-27T11:55:03.026Z,8.10
2019-04-27T11:57:30.800Z,8.93
2019-04-27T11:59:58.847Z,10.60
2019-04-27T12:02:26.635Z,9.23
2019-04-27T12:04:54.604Z,10.40
2019-04-27T12:07:22.627Z,9.97
2019-04-27T12:09:50.597Z,10.70
2019-04-27T12:12:21.741Z,9.50
2019-04-27T12:14:48.436Z,18.90
2019-04-27T12:17:16.591Z,24.17
2019-04-27T12:19:46.434Z,98.43
2019-04-27T12:22:16.280Z,74.47
2019-04-27T12:24:45.751Z,11.80
2019-04-27T12:27:30.377Z,16.90
2019-04-27T12:30:06.267Z,10.37
2019-04-27T12:32:36.019Z,10.13
2019-04-27T12:35:04.302Z,9.13
2019-04-27T12:37:32.191Z,9.77
2019-04-27T12:40:00.124Z,8.70
2019-04-27T12:42:28.675Z,8.70
2019-04-27T12:44:56.614Z,8.60
2019-04-27T12:47:26.215Z,8.73
2019-04-27T12:49:57.517Z,9.07
2019-04-27T12:52:23.947Z,9.97
2019-04-27T12:55:00.045Z,9.50
2019-04-27T12:57:37.095Z,8.37
2019-04-27T13:00:26.543Z,7.90
2019-04-27T13:02:55.603Z,7.83
2019-04-27T13:05:25.823Z,8.70
2019-04-27T13:07:53.849Z,10.20
2019-04-27T13:10:22.000Z,8.80
2019-04-27T13:12:49.976Z,9.63
2019-04-27T13:15:18.131Z,8.07
2019-04-27T13:17:46.125Z,8.43
2019-04-27T13:20:16.565Z,8.07
2019-04-27T13:22:45.891Z,8.63
2019-04-27T13:25:14.435Z,8.17
2019-04-27T13:27:42.411Z,8.07
2019-04-27T13:30:11.154Z,8.77
2019-04-27T13:32:39.130Z,7.77
2019-04-27T13:35:07.644Z,7.93
2019-04-27T13:37:42.997Z,7.10
2019-04-27T13:40:12.730Z,7.83
2019-04-27T13:43:04.060Z,8.30
2019-04-27T13:45:49.888Z,7.73
2019-04-27T13:48:36.412Z,13.87
2019-04-27T13:51:07.571Z,8.00
2019-04-27T13:53:36.813Z,6.83
2019-04-27T13:56:14.993Z,6.90
2019-04-27T13:58:43.521Z,7.70
2019-04-27T14:01:11.498Z,6.43
2019-04-27T14:03:39.608Z,6.57
2019-04-27T14:06:08.376Z,6.37
2019-04-27T14:08:38.184Z,5.77
2019-04-27T14:11:06.425Z,7.67
2019-04-27T14:13:34.212Z,5.60
2019-04-27T14:16:02.201Z,5.67
2019-04-27T14:18:29.975Z,5.20
2019-04-27T14:20:59.214Z,5.20
2019-04-27T14:23:29.256Z,5.33
2019-04-27T14:25:58.517Z,5.40
2019-04-27T14:28:28.894Z,6.13
2019-04-27T14:30:58.919Z,5.53
2019-04-27T14:33:28.408Z,5.53
2019-04-27T14:35:56.447Z,5.90
2019-04-27T14:38:24.733Z,5.90
2019-04-27T14:40:52.798Z,4.60
2019-04-27T14:43:20.871Z,5.83
2019-04-27T14:45:48.891Z,4.63
2019-04-27T14:48:18.515Z,5.23
2019-04-27T14:50:48.397Z,4.97
2019-04-27T14:53:18.614Z,5.00
2019-04-27T14:55:46.657Z,7.80
2019-04-27T14:58:14.635Z,7.70
2019-04-27T15:00:42.669Z,7.90
2019-04-27T15:03:10.534Z,5.37
2019-04-27T15:05:38.315Z,4.80
2019-04-27T15:08:09.604Z,6.33
2019-04-27T15:10:36.289Z,7.27
2019-04-27T15:13:06.414Z,9.43
2019-04-27T15:15:34.417Z,4.97
2019-04-27T15:18:05.389Z,6.13
2019-04-27T15:20:40.958Z,4.60
2019-04-27T15:23:07.249Z,5.77
2019-04-27T15:25:45.130Z,5.70
2019-04-27T15:28:07.454Z,5.70
2019-04-27T15:31:22.382Z,7.03
2019-04-27T15:33:59.577Z,8.10
2019-04-27T15:36:38.043Z,6.73
2019-04-27T15:39:12.195Z,5.00
2019-04-27T15:41:46.367Z,5.07
2019-04-27T15:44:14.326Z,5.63
2019-04-27T15:46:42.544Z,4.67
2019-04-27T15:49:11.746Z,9.13
2019-04-27T15:51:39.900Z,4.80
2019-04-27T15:54:07.888Z,4.70
2019-04-27T15:56:36.983Z,8.67
2019-04-27T15:59:06.156Z,8.33
2019-04-27T16:01:35.682Z,9.00
2019-04-27T16:04:09.481Z,7.63
2019-04-27T16:06:34.120Z,6.93
2019-04-27T16:09:02.152Z,6.93
2019-04-27T16:11:29.928Z,5.00
2019-04-27T16:13:58.751Z,4.90
2019-04-27T16:16:29.135Z,5.30
2019-04-27T16:18:57.874Z,3.43
2019-04-27T16:21:28.519Z,4.00
2019-04-27T16:23:58.193Z,3.20
2019-04-27T16:26:26.106Z,3.23
2019-04-27T16:28:53.956Z,3.13
2019-04-27T16:31:24.936Z,3.43
2019-04-27T16:33:54.137Z,3.50
2019-04-27T16:36:21.458Z,3.80
2019-04-27T16:38:57.092Z,4.20
2019-04-27T16:41:24.981Z,3.03
2019-04-27T16:43:52.977Z,9.10
2019-04-27T16:46:21.413Z,3.70
2019-04-27T16:48:49.583Z,4.03
2019-04-27T16:51:18.348Z,5.17
2019-04-27T16:53:46.654Z,7.77
2019-04-27T16:56:18.334Z,6.90
2019-04-27T16:58:49.084Z,5.17
2019-04-27T17:01:22.635Z,5.30
2019-04-27T17:03:50.675Z,4.33
2019-04-27T17:06:21.295Z,4.53
2019-04-27T17:08:49.604Z,3.80
2019-04-27T17:11:19.654Z,4.30
2019-04-27T17:13:52.214Z,3.43
2019-04-27T17:16:54.460Z,5.40
2019-04-27T17:19:28.645Z,5.93
2019-04-27T17:21:56.648Z,3.63
2019-04-27T17:24:42.634Z,4.47
2019-04-27T17:27:11.088Z,5.00
2019-04-27T17:29:40.041Z,4.13
2019-04-27T17:32:10.573Z,3.70
2019-04-27T17:34:39.749Z,4.00
2019-04-27T17:37:08.302Z,3.63
2019-04-27T17:39:36.433Z,6.07
2019-04-27T17:42:05.015Z,4.27
2019-04-27T17:44:33.130Z,3.70
2019-04-27T17:47:01.048Z,3.57
2019-04-27T17:49:29.003Z,5.07
2019-04-27T17:51:58.597Z,7.37
2019-04-27T17:54:26.666Z,4.60
2019-04-27T17:56:54.438Z,4.67
2019-04-27T17:59:22.815Z,9.03
2019-04-27T18:02:04.710Z,6.33
2019-04-27T18:04:32.941Z,10.07
2019-04-27T18:07:03.364Z,6.67
2019-04-27T18:09:33.413Z,7.63
2019-04-27T18:12:02.199Z,6.47
2019-04-27T18:14:32.745Z,9.60
2019-04-27T18:17:03.601Z,12.13
2019-04-27T18:19:49.059Z,15.60
2019-04-27T18:22:19.894Z,9.00
2019-04-27T18:25:18.729Z,12.50
2019-04-27T18:28:02.692Z,10.10
2019-04-27T18:30:38.669Z,29.60
2019-04-27T18:33:04.225Z,40.30
2019-04-27T18:35:32.510Z,50.30
2019-04-27T18:38:01.910Z,41.23
2019-04-27T18:40:32.570Z,41.40
2019-04-27T18:43:01.873Z,40.47
2019-04-27T18:45:29.707Z,19.47
2019-04-27T18:48:06.704Z,23.27
2019-04-27T18:50:48.432Z,27.67
2019-04-27T18:53:23.281Z,27.23
2019-04-27T18:55:56.540Z,28.17
2019-04-27T18:58:19.454Z,23.00
2019-04-27T19:00:48.442Z,21.90
2019-04-27T19:03:18.310Z,26.50
2019-04-27T19:05:48.090Z,20.90
2019-04-27T19:08:17.776Z,20.33
2019-04-27T19:10:46.158Z,18.53
2019-04-27T19:13:14.199Z,20.27
2019-04-27T19:15:42.217Z,16.27
2019-04-27T19:18:10.195Z,11.63
2019-04-27T19:20:39.030Z,10.37
2019-04-27T19:23:26.319Z,12.70
2019-04-27T19:26:20.568Z,9.10
2019-04-27T19:29:02.951Z,9.93
2019-04-27T19:31:33.945Z,9.00
2019-04-27T19:34:01.829Z,9.40
2019-04-27T19:36:30.428Z,10.73
2019-04-27T19:38:58.581Z,13.73
2019-04-27T19:41:28.731Z,9.93
2019-04-27T19:43:56.825Z,10.63
2019-04-27T19:46:24.826Z,10.03
2019-04-27T19:48:52.693Z,8.50
2019-04-27T19:51:21.573Z,11.97
2019-04-27T19:53:49.610Z,12.73
2019-04-27T19:56:19.363Z,11.33
2019-04-27T19:58:51.932Z,14.93
2019-04-27T20:01:26.029Z,14.00
2019-04-27T20:03:59.792Z,16.77
2019-04-27T20:06:29.245Z,17.30
2019-04-27T20:09:02.194Z,16.27
2019-04-27T20:11:30.111Z,13.43
2019-04-27T20:13:58.047Z,14.40
2019-04-27T20:16:25.839Z,17.47
2019-04-27T20:18:53.910Z,17.47
2019-04-27T20:21:21.925Z,17.13
2019-04-27T20:23:50.705Z,16.10
2019-04-27T20:26:18.665Z,20.50
2019-04-27T20:28:46.556Z,18.60
2019-04-27T20:31:14.344Z,18.53
2019-04-27T20:33:42.196Z,21.57
2019-04-27T20:36:11.225Z,23.27
2019-04-27T20:38:39.575Z,21.03
2019-04-27T20:41:07.406Z,19.60
2019-04-27T20:43:35.404Z,19.67
2019-04-27T20:46:03.787Z,21.13
2019-04-27T20:48:31.731Z,20.20
2019-04-27T20:51:01.178Z,22.10
2019-04-27T20:53:34.262Z,23.03
2019-04-27T20:56:02.155Z,20.87
2019-04-27T20:58:31.104Z,25.57
2019-04-27T21:00:59.226Z,19.60
2019-04-27T21:03:52.207Z,21.27
2019-04-27T21:06:41.005Z,26.90
2019-04-27T21:09:21.219Z,23.50
2019-04-27T21:11:49.094Z,23.80
2019-04-27T21:14:17.156Z,24.47
2019-04-27T21:16:45.145Z,21.53
2019-04-27T21:19:13.116Z,24.27
2019-04-27T21:21:42.728Z,23.53
2019-04-27T21:24:11.002Z,22.23
2019-04-27T21:26:39.512Z,24.37
2019-04-27T21:29:07.502Z,23.17
2019-04-27T21:31:35.510Z,22.33
2019-04-27T21:34:03.473Z,22.97
2019-04-27T21:36:31.290Z,21.30
2019-04-27T21:38:59.223Z,25.80
2019-04-27T21:41:27.106Z,23.07
2019-04-27T21:43:54.945Z,12.43
2019-04-27T21:46:23.205Z,9.73
2019-04-27T21:48:51.101Z,17.50
2019-04-27T21:51:21.688Z,17.87
2019-04-27T21:54:02.082Z,20.60
2019-04-27T21:56:31.284Z,14.70
2019-04-27T21:59:01.022Z,20.43
2019-04-27T22:01:31.843Z,16.40
2019-04-27T22:04:01.011Z,19.03
2019-04-27T22:06:29.273Z,19.10
2019-04-27T22:08:57.284Z,19.57
2019-04-27T22:11:26.051Z,17.97
2019-04-27T22:13:53.963Z,18.30
2019-04-27T22:16:22.819Z,25.23
2019-04-27T22:18:52.030Z,21.43
2019-04-27T22:21:21.638Z,23.17
2019-04-27T22:23:58.649Z,21.57
2019-04-27T22:26:26.579Z,22.80
2019-04-27T22:28:54.688Z,23.03
2019-04-27T22:31:22.755Z,20.23
2019-04-27T22:33:53.814Z,21.13
2019-04-27T22:36:21.286Z,21.23
2019-04-27T22:38:49.324Z,24.23
2019-04-27T22:41:32.944Z,23.10
2019-04-27T22:44:21.519Z,24.60
2019-04-27T22:46:50.287Z,22.67
2019-04-27T22:49:18.994Z,22.30
2019-04-27T22:51:47.131Z,21.30
2019-04-27T22:54:15.456Z,23.23
2019-04-27T22:56:43.914Z,25.00
2019-04-27T22:59:23.079Z,21.57
2019-04-27T23:02:09.264Z,25.93
2019-04-27T23:04:42.058Z,23.80
2019-04-27T23:07:11.066Z,21.30
2019-04-27T23:09:40.724Z,22.87
2019-04-27T23:12:08.990Z,25.97
2019-04-27T23:14:36.705Z,27.57
2019-04-27T23:17:31.551Z,25.57
2019-04-27T23:20:01.281Z,23.37
2019-04-27T23:22:31.523Z,21.57
2019-04-27T23:25:01.074Z,23.50
2019-04-27T23:27:29.558Z,26.53
2019-04-27T23:29:57.291Z,27.63
2019-04-27T23:32:31.992Z,26.40
2019-04-27T23:34:59.830Z,21.63
2019-04-27T23:37:27.629Z,22.33
2019-04-27T23:39:55.362Z,23.47
2019-04-27T23:42:23.131Z,24.23
2019-04-27T23:44:50.914Z,24.00
2019-04-27T23:47:18.815Z,24.77
2019-04-27T23:49:46.575Z,25.90
2019-04-27T23:52:19.366Z,26.03
2019-04-27T23:54:47.086Z,25.30
2019-04-27T23:57:14.875Z,28.77
2019-04-27T23:59:42.700Z,25.47
